createdAt,value
2023-03-17T00:01:58.738Z,0.88
2023-03-17T00:04:27.640Z,0.70
2023-03-17T00:06:55.576Z,0.80
2023-03-17T00:09:23.280Z,0.93
2023-03-17T00:11:50.902Z,1.52
2023-03-17T00:14:19.730Z,1.55
2023-03-17T00:16:50.243Z,0.90
2023-03-17T00:19:28.024Z,0.98
2023-03-17T00:21:56.672Z,1.20
2023-03-17T00:24:23.682Z,0.98
2023-03-17T00:26:50.670Z,1.00
2023-03-17T00:29:17.663Z,1.30
2023-03-17T00:31:46.335Z,0.90
2023-03-17T00:34:17.443Z,0.90
2023-03-17T00:36:48.186Z,0.98
2023-03-17T00:44:12.652Z,0.98
2023-03-17T00:46:41.602Z,1.02
2023-03-17T00:51:44.785Z,1.10
2023-03-17T00:54:13.057Z,1.00
2023-03-17T00:56:41.775Z,0.98
2023-03-17T00:59:22.095Z,0.80
2023-03-17T01:01:49.258Z,0.98
2023-03-17T01:04:16.555Z,1.10
2023-03-17T01:06:43.746Z,0.82
2023-03-17T01:09:16.060Z,0.73
2023-03-17T01:11:44.269Z,0.80
2023-03-17T01:14:12.346Z,1.08
2023-03-17T01:16:39.751Z,0.88
2023-03-17T01:19:12.437Z,1.05
2023-03-17T01:21:39.558Z,0.90
2023-03-17T01:24:08.343Z,1.00
2023-03-17T01:26:36.080Z,1.10
2023-03-17T01:29:04.917Z,1.00
2023-03-17T01:31:32.053Z,1.10
2023-03-17T01:33:59.158Z,1.05
2023-03-17T01:36:26.640Z,0.80
2023-03-17T01:38:53.774Z,0.90
2023-03-17T01:41:21.167Z,0.80
2023-03-17T01:43:48.391Z,1.00
2023-03-17T01:46:29.290Z,0.93
2023-03-17T01:49:25.078Z,0.90
2023-03-17T01:52:03.969Z,1.00
2023-03-17T01:54:50.664Z,0.88
2023-03-17T01:57:29.742Z,0.90
2023-03-17T02:00:10.292Z,0.90
2023-03-17T02:02:48.378Z,0.90
2023-03-17T02:05:18.851Z,0.80
2023-03-17T02:07:46.453Z,1.13
2023-03-17T02:10:15.741Z,0.80
2023-03-17T02:12:45.822Z,0.70
2023-03-17T02:15:13.091Z,1.33
2023-03-17T02:17:40.278Z,0.95
2023-03-17T02:20:18.537Z,1.35
2023-03-17T02:22:53.710Z,1.40
2023-03-17T02:25:22.625Z,0.88
2023-03-17T02:27:54.807Z,1.02
2023-03-17T02:30:24.360Z,0.98
2023-03-17T02:32:54.491Z,1.08
2023-03-17T02:35:22.390Z,0.75
2023-03-17T02:37:49.385Z,1.13
2023-03-17T02:40:16.696Z,1.27
2023-03-17T02:42:43.742Z,1.00
2023-03-17T02:45:12.533Z,0.95
2023-03-17T02:47:40.027Z,0.90
2023-03-17T02:50:09.767Z,1.77
2023-03-17T02:52:37.339Z,0.90
2023-03-17T02:55:05.656Z,0.70
2023-03-17T02:57:32.710Z,1.08
2023-03-17T02:59:59.720Z,1.10
2023-03-17T03:02:27.130Z,0.80
2023-03-17T03:04:54.295Z,1.13
2023-03-17T03:07:21.696Z,0.80
2023-03-17T03:09:48.866Z,1.10
2023-03-17T03:12:15.974Z,0.70
2023-03-17T03:14:43.172Z,1.27
2023-03-17T03:17:10.746Z,0.88
2023-03-17T03:19:38.234Z,0.80
2023-03-17T03:22:05.686Z,0.60
2023-03-17T03:24:32.899Z,0.77
2023-03-17T03:26:59.985Z,0.95
2023-03-17T03:29:27.171Z,0.70
2023-03-17T03:31:54.153Z,0.80
2023-03-17T03:34:21.195Z,1.30
2023-03-17T03:36:48.196Z,0.88
2023-03-17T03:39:15.243Z,0.93
2023-03-17T03:41:43.733Z,1.55
2023-03-17T03:44:11.050Z,1.05
2023-03-17T03:46:38.287Z,1.00
2023-03-17T03:49:05.589Z,0.80
2023-03-17T03:51:32.579Z,0.82
2023-03-17T03:53:59.610Z,1.10
2023-03-17T03:56:27.103Z,1.10
2023-03-17T03:58:54.161Z,1.10
2023-03-17T04:01:21.178Z,0.75
2023-03-17T04:03:48.469Z,1.15
2023-03-17T04:06:16.299Z,1.15
2023-03-17T04:08:43.441Z,1.25
2023-03-17T04:11:10.522Z,1.00
2023-03-17T04:13:38.466Z,0.98
2023-03-17T04:16:08.511Z,1.48
2023-03-17T04:18:35.759Z,0.80
2023-03-17T04:21:02.828Z,0.70
2023-03-17T04:23:31.539Z,0.90
2023-03-17T04:25:59.148Z,1.20
2023-03-17T04:28:26.681Z,0.70
2023-03-17T04:30:53.590Z,1.00
2023-03-17T04:33:20.619Z,1.33
2023-03-17T04:35:48.187Z,0.80
2023-03-17T04:38:15.173Z,1.05
2023-03-17T04:40:42.309Z,0.90
2023-03-17T04:43:10.376Z,2.05
2023-03-17T04:45:38.018Z,0.90
2023-03-17T04:48:05.866Z,1.80
2023-03-17T04:50:33.546Z,0.88
2023-03-17T04:53:01.530Z,0.88
2023-03-17T04:55:28.540Z,1.75
2023-03-17T04:57:55.653Z,1.05
2023-03-17T05:00:22.672Z,0.90
2023-03-17T05:02:49.590Z,0.77
2023-03-17T05:05:16.601Z,1.10
2023-03-17T05:07:44.893Z,0.90
2023-03-17T05:10:13.878Z,1.02
2023-03-17T05:12:40.927Z,1.20
2023-03-17T05:15:10.080Z,0.80
2023-03-17T05:17:37.158Z,0.65
2023-03-17T05:20:04.599Z,1.35
2023-03-17T05:22:31.862Z,1.35
2023-03-17T05:24:59.136Z,0.90
2023-03-17T05:27:27.074Z,1.50
2023-03-17T05:29:53.998Z,0.70
2023-03-17T05:32:21.148Z,1.00
2023-03-17T05:34:48.495Z,1.50
2023-03-17T05:37:15.813Z,1.38
2023-03-17T05:39:43.728Z,0.90
2023-03-17T05:42:11.528Z,0.90
2023-03-17T05:44:38.447Z,1.00
2023-03-17T05:47:05.796Z,1.15
2023-03-17T05:49:33.800Z,1.00
2023-03-17T05:52:00.822Z,0.93
2023-03-17T05:54:27.814Z,0.98
2023-03-17T05:56:54.835Z,0.95
2023-03-17T05:59:22.269Z,0.68
2023-03-17T06:01:49.320Z,0.80
2023-03-17T06:04:16.876Z,0.88
2023-03-17T06:06:43.870Z,1.52
2023-03-17T06:09:10.869Z,0.80
2023-03-17T06:11:38.253Z,0.80
2023-03-17T06:14:05.168Z,0.90
2023-03-17T06:16:33.501Z,0.80
2023-03-17T06:19:00.532Z,1.15
2023-03-17T06:21:27.604Z,0.75
2023-03-17T06:23:54.657Z,0.80
2023-03-17T06:26:22.003Z,0.60
2023-03-17T06:28:48.999Z,0.90
2023-03-17T06:31:16.085Z,0.93
2023-03-17T06:33:44.113Z,0.65
2023-03-17T06:36:13.623Z,0.60
2023-03-17T06:38:41.724Z,0.90
2023-03-17T06:41:09.189Z,1.77
2023-03-17T06:43:36.355Z,1.38
2023-03-17T06:46:03.886Z,0.88
2023-03-17T06:48:31.352Z,1.13
2023-03-17T06:50:59.777Z,1.17
2023-03-17T06:53:27.495Z,1.27
2023-03-17T06:55:54.661Z,1.30
2023-03-17T06:58:21.811Z,2.78
2023-03-17T07:00:49.334Z,0.90
2023-03-17T07:03:17.714Z,0.80
2023-03-17T07:05:44.930Z,1.02
2023-03-17T07:08:11.965Z,0.82
2023-03-17T07:10:42.992Z,1.15
2023-03-17T07:13:10.638Z,1.20
2023-03-17T07:15:38.474Z,0.98
2023-03-17T07:18:06.556Z,0.80
2023-03-17T07:20:33.608Z,0.80
2023-03-17T07:23:00.993Z,1.23
2023-03-17T07:25:28.343Z,1.80
2023-03-17T07:27:56.832Z,2.05
2023-03-17T07:30:23.934Z,1.13
2023-03-17T07:32:51.025Z,1.00
2023-03-17T07:35:19.372Z,1.10
2023-03-17T07:37:47.375Z,0.98
2023-03-17T07:40:14.672Z,1.40
2023-03-17T07:42:42.246Z,1.15
2023-03-17T07:45:10.070Z,1.00
2023-03-17T07:47:37.197Z,1.25
2023-03-17T07:50:07.111Z,1.15
2023-03-17T07:52:34.689Z,1.10
2023-03-17T07:55:02.693Z,1.10
2023-03-17T07:57:29.904Z,2.08
2023-03-17T07:59:57.845Z,0.85
2023-03-17T08:02:25.482Z,1.55
2023-03-17T08:04:54.054Z,1.05
2023-03-17T08:07:21.072Z,1.10
2023-03-17T08:09:48.178Z,1.27
2023-03-17T08:12:15.271Z,1.35
2023-03-17T08:14:42.445Z,0.80
2023-03-17T08:17:10.766Z,1.27
2023-03-17T08:19:38.933Z,1.00
2023-03-17T08:22:05.941Z,1.10
2023-03-17T08:24:33.252Z,1.27
2023-03-17T08:27:01.042Z,1.42
2023-03-17T08:29:29.304Z,1.20
2023-03-17T08:31:57.776Z,0.90
2023-03-17T08:34:26.366Z,1.00
2023-03-17T08:36:55.474Z,1.08
2023-03-17T08:39:22.816Z,0.90
2023-03-17T08:41:49.944Z,1.60
2023-03-17T08:44:17.011Z,1.73
2023-03-17T08:46:44.679Z,1.38
2023-03-17T08:49:12.708Z,1.30
2023-03-17T08:51:39.773Z,1.50
2023-03-17T08:54:07.808Z,2.03
2023-03-17T08:56:35.325Z,2.30
2023-03-17T08:59:03.148Z,1.88
2023-03-17T09:01:32.090Z,1.80
2023-03-17T09:04:00.914Z,1.48
2023-03-17T09:06:28.639Z,1.60
2023-03-17T09:08:55.808Z,1.33
2023-03-17T09:11:28.893Z,1.50
2023-03-17T09:13:56.732Z,1.70
2023-03-17T09:16:24.472Z,1.65
2023-03-17T09:18:52.024Z,1.63
2023-03-17T09:21:19.496Z,1.73
2023-03-17T09:23:46.973Z,1.95
2023-03-17T09:26:14.245Z,1.38
2023-03-17T09:28:41.740Z,1.27
2023-03-17T09:31:12.344Z,1.55
2023-03-17T09:33:40.880Z,1.38
2023-03-17T09:36:09.337Z,1.10
2023-03-17T09:38:37.412Z,1.63
2023-03-17T09:41:20.854Z,1.50
2023-03-17T09:43:59.254Z,1.20
2023-03-17T09:46:38.508Z,1.20
2023-03-17T09:49:14.712Z,1.00
2023-03-17T09:51:45.146Z,1.40
2023-03-17T09:54:21.208Z,1.10
2023-03-17T09:56:51.425Z,1.48
2023-03-17T09:59:42.339Z,1.33
2023-03-17T10:02:30.173Z,2.13
2023-03-17T10:04:58.238Z,2.70
2023-03-17T10:07:47.833Z,1.80
2023-03-17T10:10:24.997Z,1.85
2023-03-17T10:13:33.715Z,1.20
2023-03-17T10:16:10.365Z,1.40
2023-03-17T10:18:49.651Z,1.20
2023-03-17T10:21:22.637Z,0.80
2023-03-17T10:23:50.501Z,1.83
2023-03-17T10:26:31.019Z,1.00
2023-03-17T10:28:59.810Z,0.95
2023-03-17T10:31:35.612Z,1.25
2023-03-17T10:34:14.971Z,1.10
2023-03-17T10:36:49.109Z,1.30
2023-03-17T10:39:21.597Z,1.25
2023-03-17T10:42:07.714Z,2.13
2023-03-17T10:44:37.527Z,1.42
2023-03-17T10:47:04.950Z,1.02
2023-03-17T10:49:36.974Z,1.40
2023-03-17T10:52:08.195Z,1.50
2023-03-17T10:54:37.094Z,1.42
2023-03-17T10:57:08.235Z,1.13
2023-03-17T10:59:44.563Z,1.48
2023-03-17T11:02:28.264Z,1.25
2023-03-17T11:05:03.404Z,1.25
2023-03-17T11:07:38.742Z,1.33
2023-03-17T11:10:24.831Z,1.30
2023-03-17T11:12:59.224Z,1.33
2023-03-17T11:15:33.928Z,1.00
2023-03-17T11:18:23.361Z,1.40
2023-03-17T11:21:02.454Z,1.48
2023-03-17T11:23:52.546Z,1.85
2023-03-17T11:26:57.496Z,1.85
2023-03-17T11:29:30.364Z,1.40
2023-03-17T11:32:09.513Z,1.27
2023-03-17T11:34:53.005Z,1.33
2023-03-17T11:37:37.921Z,1.75
2023-03-17T11:40:22.769Z,0.95
2023-03-17T11:43:11.736Z,1.90
2023-03-17T11:45:53.802Z,1.63
2023-03-17T11:48:28.172Z,1.65
2023-03-17T11:51:10.203Z,1.02
2023-03-17T11:53:52.659Z,1.30
2023-03-17T11:56:43.083Z,1.10
2023-03-17T11:59:30.890Z,1.48
2023-03-17T12:02:39.711Z,1.38
2023-03-17T12:05:15.403Z,1.38
2023-03-17T12:07:53.434Z,1.50
2023-03-17T12:10:51.984Z,1.40
2023-03-17T12:13:23.132Z,1.48
2023-03-17T12:16:06.077Z,1.48
2023-03-17T12:18:43.249Z,1.25
2023-03-17T12:21:23.514Z,1.27
2023-03-17T12:24:00.467Z,1.55
2023-03-17T12:26:50.127Z,1.30
2023-03-17T12:29:26.422Z,1.30
2023-03-17T12:32:33.334Z,1.50
2023-03-17T12:35:25.034Z,1.30
2023-03-17T12:37:52.863Z,1.20
2023-03-17T12:40:30.983Z,1.27
2023-03-17T12:43:21.433Z,1.05
2023-03-17T12:46:14.485Z,1.42
2023-03-17T12:49:14.852Z,1.40
2023-03-17T12:51:52.032Z,1.10
2023-03-17T12:54:24.519Z,1.45
2023-03-17T12:56:51.657Z,2.30
2023-03-17T12:59:25.176Z,1.33
2023-03-17T13:01:59.122Z,1.35
2023-03-17T13:04:33.056Z,1.38
2023-03-17T13:07:12.530Z,1.20
2023-03-17T13:09:54.771Z,1.70
2023-03-17T13:12:40.073Z,0.93
2023-03-17T13:15:26.549Z,1.42
2023-03-17T13:18:24.321Z,1.05
2023-03-17T13:20:56.601Z,1.40
2023-03-17T13:23:59.145Z,1.40
2023-03-17T13:26:56.527Z,1.00
2023-03-17T13:29:45.253Z,1.17
2023-03-17T13:32:27.453Z,1.42
2023-03-17T13:35:17.970Z,1.40
2023-03-17T13:38:03.235Z,0.98
2023-03-17T13:41:21.715Z,1.50
2023-03-17T13:44:00.179Z,1.40
2023-03-17T13:46:34.127Z,1.20
2023-03-17T13:49:26.726Z,1.40
2023-03-17T13:52:14.416Z,1.23
2023-03-17T13:54:48.425Z,1.42
2023-03-17T13:57:25.886Z,1.33
2023-03-17T13:59:59.100Z,1.40
2023-03-17T14:02:32.013Z,1.40
2023-03-17T14:05:03.560Z,1.50
2023-03-17T14:07:53.244Z,0.93
2023-03-17T14:10:24.267Z,1.55
2023-03-17T14:13:31.755Z,0.93
2023-03-17T14:16:11.805Z,1.60
2023-03-17T14:18:42.197Z,1.25
2023-03-17T14:21:24.599Z,1.50
2023-03-17T14:23:56.028Z,1.40
2023-03-17T14:26:25.514Z,1.63
2023-03-17T14:28:53.069Z,1.20
2023-03-17T14:31:28.022Z,1.73
2023-03-17T14:33:57.607Z,1.40
2023-03-17T14:36:26.090Z,1.20
2023-03-17T14:38:56.095Z,1.60
2023-03-17T14:41:27.846Z,1.42
2023-03-17T14:46:34.540Z,1.33
2023-03-17T14:49:20.032Z,1.23
2023-03-17T14:51:53.558Z,1.40
2023-03-17T14:54:24.878Z,1.13
2023-03-17T14:57:03.291Z,1.20
2023-03-17T14:59:36.750Z,1.48
2023-03-17T15:02:34.880Z,1.50
2023-03-17T15:05:27.468Z,1.20
2023-03-17T15:07:54.556Z,1.13
2023-03-17T15:10:31.292Z,0.82
2023-03-17T15:13:04.132Z,1.50
2023-03-17T15:15:41.870Z,1.30
2023-03-17T15:18:13.917Z,1.50
2023-03-17T15:20:43.548Z,1.25
2023-03-17T15:23:29.539Z,1.30
2023-03-17T15:25:57.227Z,1.65
2023-03-17T15:28:31.846Z,1.17
2023-03-17T15:31:12.878Z,1.67
2023-03-17T15:33:41.355Z,1.20
2023-03-17T15:36:29.266Z,0.98
2023-03-17T15:38:58.597Z,1.30
2023-03-17T15:41:25.738Z,1.23
2023-03-17T15:43:53.642Z,1.05
2023-03-17T15:46:27.638Z,0.80
2023-03-17T15:48:55.263Z,0.82
2023-03-17T15:51:23.511Z,0.82
2023-03-17T15:53:53.652Z,1.13
2023-03-17T15:56:24.041Z,0.80
2023-03-17T15:58:52.632Z,0.90
2023-03-17T16:01:20.759Z,0.90
2023-03-17T16:03:48.817Z,1.00
2023-03-17T16:06:22.210Z,1.10
2023-03-17T16:08:50.009Z,1.73
2023-03-17T16:11:28.211Z,1.75
2023-03-17T16:13:57.257Z,2.85
2023-03-17T16:16:31.718Z,1.80
2023-03-17T16:18:59.576Z,1.58
2023-03-17T16:21:27.498Z,1.27
2023-03-17T16:23:55.064Z,1.35
2023-03-17T16:26:22.271Z,1.20
2023-03-17T16:28:49.988Z,1.80
2023-03-17T16:31:20.713Z,1.55
2023-03-17T16:33:50.398Z,2.13
2023-03-17T16:36:20.137Z,2.28
2023-03-17T16:38:47.765Z,1.50
2023-03-17T16:41:27.410Z,1.67
2023-03-17T16:44:02.413Z,1.45
2023-03-17T16:46:35.019Z,1.27
2023-03-17T16:49:04.244Z,1.35
2023-03-17T16:51:31.404Z,1.10
2023-03-17T16:53:58.612Z,1.15
2023-03-17T16:56:27.614Z,1.30
2023-03-17T16:58:54.708Z,1.20
2023-03-17T17:01:24.831Z,1.10
2023-03-17T17:03:52.583Z,0.90
2023-03-17T17:06:21.175Z,1.75
2023-03-17T17:08:49.453Z,1.90
2023-03-17T17:11:18.291Z,1.23
2023-03-17T17:13:47.828Z,2.15
2023-03-17T17:16:28.376Z,4.20
2023-03-17T17:18:56.034Z,1.80
2023-03-17T17:21:23.324Z,1.52
2023-03-17T17:23:52.818Z,1.67
2023-03-17T17:26:20.817Z,1.58
2023-03-17T17:28:48.375Z,1.95
2023-03-17T17:31:15.526Z,2.63
2023-03-17T17:33:42.796Z,1.73
2023-03-17T17:36:17.762Z,1.25
2023-03-17T17:38:45.409Z,1.40
2023-03-17T17:41:13.073Z,2.00
2023-03-17T17:43:40.917Z,1.40
2023-03-17T17:46:25.995Z,3.80
2023-03-17T17:48:53.065Z,1.70
2023-03-17T17:51:22.161Z,1.10
2023-03-17T17:53:49.226Z,1.15
2023-03-17T17:56:17.972Z,0.90
2023-03-17T17:58:45.546Z,1.00
2023-03-17T18:01:14.184Z,0.85
2023-03-17T18:03:43.033Z,1.13
2023-03-17T18:06:11.784Z,1.00
2023-03-17T18:08:40.631Z,1.40
2023-03-17T18:11:08.186Z,1.30
2023-03-17T18:13:36.307Z,1.35
2023-03-17T18:16:04.236Z,1.05
2023-03-17T18:18:32.637Z,1.05
2023-03-17T18:21:02.465Z,1.25
2023-03-17T18:23:29.637Z,1.80
2023-03-17T18:26:01.303Z,1.83
2023-03-17T18:28:29.043Z,1.70
2023-03-17T18:31:03.953Z,2.20
2023-03-17T18:33:32.541Z,2.42
2023-03-17T18:36:00.197Z,1.48
2023-03-17T18:38:27.571Z,1.40
2023-03-17T18:40:54.729Z,1.48
2023-03-17T18:43:22.267Z,1.38
2023-03-17T18:45:50.832Z,1.40
2023-03-17T18:48:18.018Z,2.03
2023-03-17T18:50:47.779Z,1.50
2023-03-17T18:53:15.806Z,1.67
2023-03-17T18:55:43.162Z,1.30
2023-03-17T18:58:10.476Z,1.67
2023-03-17T19:00:37.729Z,1.75
2023-03-17T19:03:04.982Z,1.77
2023-03-17T19:05:37.632Z,1.85
2023-03-17T19:08:04.996Z,1.77
2023-03-17T19:10:32.738Z,2.45
2023-03-17T19:13:04.864Z,1.70
2023-03-17T19:15:32.218Z,1.60
2023-03-17T19:18:01.158Z,1.85
2023-03-17T19:20:28.594Z,1.70
2023-03-17T19:22:58.806Z,1.90
2023-03-17T19:25:26.188Z,2.10
2023-03-17T19:27:54.103Z,2.25
2023-03-17T19:30:21.304Z,1.98
2023-03-17T19:32:48.570Z,1.70
2023-03-17T19:35:15.879Z,3.30
2023-03-17T19:37:44.792Z,2.63
2023-03-17T19:40:13.648Z,2.05
2023-03-17T19:42:42.160Z,2.53
2023-03-17T19:45:10.137Z,1.70
2023-03-17T19:47:37.487Z,2.50
2023-03-17T19:50:05.887Z,1.92
2023-03-17T19:52:34.767Z,1.95
2023-03-17T19:55:13.502Z,1.90
2023-03-17T19:57:48.647Z,2.20
2023-03-17T20:00:16.622Z,3.28
2023-03-17T20:02:45.324Z,2.28
2023-03-17T20:05:13.601Z,2.03
2023-03-17T20:07:41.019Z,3.38
2023-03-17T20:10:11.931Z,2.88
2023-03-17T20:12:40.298Z,1.90
2023-03-17T20:15:08.953Z,2.40
2023-03-17T20:17:38.881Z,1.95
2023-03-17T20:20:09.625Z,1.63
2023-03-17T20:22:40.344Z,1.55
2023-03-17T20:25:10.300Z,1.65
2023-03-17T20:27:39.162Z,2.00
2023-03-17T20:30:10.850Z,1.70
2023-03-17T20:35:07.959Z,2.28
2023-03-17T20:37:39.631Z,2.20
2023-03-17T20:40:16.341Z,2.47
2023-03-17T20:42:52.773Z,2.35
2023-03-17T20:45:21.369Z,1.42
2023-03-17T20:47:50.723Z,1.75
2023-03-17T20:50:18.021Z,1.80
2023-03-17T20:52:45.429Z,1.73
2023-03-17T20:55:15.544Z,2.80
2023-03-17T20:57:45.617Z,1.40
2023-03-17T21:00:18.030Z,2.40
2023-03-17T21:02:50.044Z,1.50
2023-03-17T21:05:25.886Z,1.65
2023-03-17T21:07:53.873Z,1.98
2023-03-17T21:10:21.229Z,1.70
2023-03-17T21:12:48.657Z,1.60
2023-03-17T21:15:18.491Z,2.03
2023-03-17T21:17:46.049Z,2.05
2023-03-17T21:20:16.833Z,2.05
2023-03-17T21:22:43.892Z,2.53
2023-03-17T21:25:11.688Z,2.35
2023-03-17T21:27:46.553Z,1.77
2023-03-17T21:30:14.539Z,2.58
2023-03-17T21:32:42.407Z,2.80
2023-03-17T21:35:11.166Z,2.80
2023-03-17T21:37:38.355Z,2.40
2023-03-17T21:40:07.116Z,2.63
2023-03-17T21:42:34.771Z,2.42
2023-03-17T21:45:03.352Z,1.95
2023-03-17T21:47:30.876Z,3.67
2023-03-17T21:49:58.115Z,2.90
2023-03-17T21:52:26.066Z,3.58
2023-03-17T21:54:53.494Z,3.08
2023-03-17T21:57:21.079Z,2.53
2023-03-17T21:59:48.210Z,2.70
2023-03-17T22:02:18.879Z,3.13
2023-03-17T22:04:48.743Z,3.30
2023-03-17T22:07:16.734Z,3.22
2023-03-17T22:09:44.159Z,3.00
2023-03-17T22:12:12.125Z,3.50
2023-03-17T22:14:39.278Z,3.00
2023-03-17T22:17:08.383Z,3.08
2023-03-17T22:19:35.539Z,2.80
2023-03-17T22:22:03.684Z,3.85
2023-03-17T22:24:32.531Z,3.35
2023-03-17T22:26:59.697Z,3.95
2023-03-17T22:29:30.448Z,2.72
2023-03-17T22:31:59.886Z,3.08
2023-03-17T22:34:28.522Z,3.00
2023-03-17T22:36:55.627Z,3.25
2023-03-17T22:39:23.969Z,3.22
2023-03-17T22:41:51.505Z,3.50
2023-03-17T22:44:18.570Z,2.83
2023-03-17T22:46:46.590Z,3.10
2023-03-17T22:49:13.900Z,3.38
2023-03-17T22:51:46.305Z,4.68
2023-03-17T22:54:13.574Z,3.55
2023-03-17T22:56:41.962Z,3.63
2023-03-17T22:59:09.297Z,3.10
2023-03-17T23:01:36.506Z,3.75
2023-03-17T23:04:03.591Z,3.60
2023-03-17T23:06:31.322Z,2.90
2023-03-17T23:08:58.795Z,3.97
2023-03-17T23:11:26.556Z,3.72
2023-03-17T23:13:55.592Z,3.22
2023-03-17T23:16:22.818Z,3.83
2023-03-17T23:18:50.320Z,3.60
2023-03-17T23:21:30.300Z,3.83
2023-03-17T23:23:59.044Z,4.63
2023-03-17T23:26:26.774Z,4.10
2023-03-17T23:28:54.084Z,4.80
2023-03-17T23:31:22.618Z,3.83
2023-03-17T23:33:51.294Z,4.07
2023-03-17T23:36:19.299Z,3.85
2023-03-17T23:38:47.199Z,3.58
2023-03-17T23:41:14.765Z,4.13
2023-03-17T23:43:42.754Z,3.58
2023-03-17T23:46:12.272Z,3.60
2023-03-17T23:48:42.721Z,3.03
2023-03-17T23:51:12.433Z,3.35
2023-03-17T23:53:39.893Z,3.80
2023-03-17T23:56:11.571Z,3.58
